Alert, Nunavut

12:32 PM AST on December 22, 2014 (GMT -0400)
Alert | Change Station
CLOSE
Current Station
Airport
Location: Alert Airport,
Elevation: 102 ft
Nearby Weather Stations

Elev 102 ft 82.52 °N, 62.28 °W | Updated 32 minutes ago

Partly Cloudy
Partly Cloudy
-27 °F
Feels Like -39 °F
N
4
Wind Variable Wind from South

Today
High -- | Low -- °F
--% Chance of Precip.
Yesterday
High -- | Low -- °F
Precip. -- in
8:00 PM 8:00 PM
New Moon, 1% visible
Pressure 30.17 in
Visibility 7.0 miles
Clouds Few 7500 ft
Windchill -39 °F
Dew Point -35 °F
Humidity 69%
Rainfall 0.00 in
Snow Depth Not available.
UV 0 out of 12
Pollen Not available.
Air Quality Not available.
Flu Activity Not available.
METAR CYLT 221600Z 18003KT 7SM FEW075 M33/M37 A3015 RMK AC1 SLP216

More Conditions Fewer Conditions

Pressure 30.17 in
Visibility 7.0 miles
Clouds Few 7500 ft
Windchill -39 °F
Dew Point -35 °F
Humidity 69%
Rainfall 0.00 in
Snow Depth Not available.
UV 0 out of 12
Pollen Not available.
Air Quality Not available.
Flu Activity Not available.
METAR CYLT 221600Z 18003KT 7SM FEW075 M33/M37 A3015 RMK AC1 SLP216

More Conditions Fewer Conditions

10-Day Weather Forecast

Almanac

Astronomy

Dec. 22, 2014 Rise Set
Actual Time
Civil Twilight
Nautical Twilight
Astronomical Twilight
Moon
Length of Visible Light
Length of Day
Tomorrow will be .
, % of the Moon is Illuminated

Today's Extremes

Country Highs Country Lows

Community

WunderPhotos

Upload Photos

1,779,636 photos uploaded!

WunderBlogs® & News

Nearby

Air Quality

  Air Quality AQ Index Pollutant
Not available.

Snow Depth

Station Depth Elevation

Earthquake Activity

City Distance Mag. Time & Date
Minimum magnitude displayed is 2.5.

Coastal Water Temperatures

Place Temperature

Nearby Weather Stations